Time;durP1;ratioP1;P1;durP2;ratioP2;P2;SDS_P1;SDS_P2;PMS_P1;PMS_P2;Temp;Humidity;BMP_temperature;BMP_pressure;BME280_temperature;BME280_humidity;BME280_pressure;Samples;Min_cycle;Max_cycle;Signal;HPM_P1;HPM_P2
2021/06/16 00:02:07;;;;;;;3.88;3.00;;;24.60;99.90;;;;;;5030373;28;20258;-75
2021/06/16 00:04:34;;;;;;;3.45;2.85;;;24.60;99.90;;;;;;5030202;28;20266;-75
2021/06/16 00:07:01;;;;;;;3.45;3.17;;;24.50;99.90;;;;;;5030332;28;20294;-75
2021/06/16 00:09:28;;;;;;;4.95;3.50;;;24.50;99.90;;;;;;5030034;28;20269;-76
2021/06/16 00:11:55;;;;;;;4.90;4.25;;;24.40;99.90;;;;;;5030155;28;20258;-75
2021/06/16 00:14:23;;;;;;;4.65;3.38;;;24.40;99.90;;;;;;5029570;28;20779;-75
2021/06/16 00:16:51;;;;;;;7.00;4.10;;;24.40;99.90;;;;;;5030409;28;20203;-75
2021/06/16 00:19:18;;;;;;;6.10;4.43;;;24.30;99.90;;;;;;5030463;28;20253;-75
2021/06/16 00:21:46;;;;;;;5.20;3.65;;;24.20;99.90;;;;;;5030048;28;20273;-75
2021/06/16 00:24:14;;;;;;;4.15;3.30;;;24.20;99.90;;;;;;5030289;28;20277;-76
2021/06/16 00:26:42;;;;;;;4.95;3.33;;;24.10;99.90;;;;;;5029953;28;20243;-76
2021/06/16 00:29:09;;;;;;;4.70;3.22;;;24.10;99.90;;;;;;5029763;28;20204;-76
2021/06/16 00:31:36;;;;;;;4.47;3.53;;;24.00;99.90;;;;;;5030077;28;20239;-76
2021/06/16 00:34:05;;;;;;;3.45;3.15;;;24.00;99.90;;;;;;5030137;28;20682;-76
2021/06/16 00:36:32;;;;;;;3.90;3.53;;;24.00;99.90;;;;;;5016274;28;20212;-76
2021/06/16 00:38:59;;;;;;;3.95;3.53;;;23.90;99.90;;;;;;5029996;28;20207;-76
2021/06/16 00:41:27;;;;;;;5.03;3.08;;;23.90;99.90;;;;;;5034264;28;20203;-76
2021/06/16 00:43:54;;;;;;;3.25;2.95;;;23.90;99.90;;;;;;5038814;28;20642;-77
2021/06/16 00:46:21;;;;;;;3.38;3.05;;;23.90;99.90;;;;;;5030014;28;20234;-76
2021/06/16 00:48:48;;;;;;;4.07;3.30;;;23.90;99.90;;;;;;5030732;28;20258;-76
2021/06/16 00:51:16;;;;;;;3.10;2.90;;;24.00;99.90;;;;;;5030130;28;20253;-76
2021/06/16 00:53:43;;;;;;;4.82;3.90;;;23.90;99.90;;;;;;5029622;28;20215;-76
2021/06/16 00:56:10;;;;;;;5.55;4.13;;;23.90;99.90;;;;;;5030058;28;20727;-76
2021/06/16 00:58:38;;;;;;;3.40;3.10;;;23.80;99.90;;;;;;5032297;28;20212;-75
2021/06/16 01:01:12;;;;;;;3.22;3.03;;;23.90;99.90;;;;;;5033792;28;20207;-76
2021/06/16 01:03:45;;;;;;;5.47;3.63;;;23.90;99.90;;;;;;5032994;28;20211;-76
2021/06/16 01:06:21;;;;;;;4.57;3.38;;;24.00;99.90;;;;;;5033516;28;20241;-76
2021/06/16 01:08:59;;;;;;;5.00;4.20;;;24.00;99.90;;;;;;5033367;28;20621;-76
2021/06/16 01:11:27;;;;;;;5.25;3.47;;;23.90;99.90;;;;;;5033120;28;20207;-76
2021/06/16 01:14:01;;;;;;;3.47;3.22;;;23.80;99.90;;;;;;5033177;28;20616;-76
2021/06/16 01:16:37;;;;;;;5.32;3.95;;;23.80;99.90;;;;;;5032963;28;20273;-75
2021/06/16 01:19:16;;;;;;;4.35;3.95;;;23.80;99.90;;;;;;5033299;28;20211;-73
2021/06/16 01:21:50;;;;;;;4.00;3.60;;;23.70;99.90;;;;;;5032501;28;20226;-74
2021/06/16 01:24:19;;;;;;;5.55;3.72;;;23.70;99.90;;;;;;5033345;28;20208;-74
2021/06/16 01:26:51;;;;;;;5.40;3.67;;;23.70;99.90;;;;;;5032766;28;20207;-75
2021/06/16 01:29:22;;;;;;;3.45;3.22;;;23.70;99.90;;;;;;5033097;28;20556;-76
2021/06/16 01:31:51;;;;;;;3.90;3.58;;;23.70;99.90;;;;;;5033118;28;20238;-75
2021/06/16 01:34:21;;;;;;;4.00;3.67;;;23.80;99.90;;;;;;5033145;28;20208;-74
2021/06/16 01:36:49;;;;;;;4.68;3.55;;;23.70;99.90;;;;;;5033077;28;20261;-74
2021/06/16 01:39:19;;;;;;;5.88;3.78;;;23.50;99.90;;;;;;5032845;28;20204;-74
2021/06/16 01:41:48;;;;;;;4.18;3.88;;;23.50;99.90;;;;;;5032486;28;20207;-74
2021/06/16 01:44:16;;;;;;;3.65;3.35;;;23.50;99.90;;;;;;5032941;28;20258;-74
2021/06/16 01:46:44;;;;;;;4.20;3.80;;;23.40;99.90;;;;;;5018554;28;20744;-74
2021/06/16 01:49:12;;;;;;;4.57;4.18;;;23.20;99.90;;;;;;5032579;28;20302;-74
2021/06/16 01:51:41;;;;;;;4.63;3.35;;;23.30;99.90;;;;;;5031901;28;20269;-74
2021/06/16 01:54:09;;;;;;;3.75;3.45;;;23.30;99.90;;;;;;5032558;28;20290;-74
2021/06/16 01:56:37;;;;;;;3.97;3.55;;;23.20;99.90;;;;;;5031731;28;20231;-74
2021/06/16 01:59:08;;;;;;;3.92;3.63;;;23.20;99.90;;;;;;5032676;28;20259;-74
2021/06/16 02:01:36;;;;;;;6.50;3.40;;;23.10;99.90;;;;;;5032099;28;20290;-74
2021/06/16 02:04:03;;;;;;;3.67;3.45;;;23.00;99.90;;;;;;5032542;28;20203;-75
2021/06/16 02:06:34;;;;;;;4.05;3.75;;;23.00;99.90;;;;;;5031549;28;20667;-75
2021/06/16 02:09:03;;;;;;;4.45;3.78;;;23.00;99.90;;;;;;5031707;28;20259;-75
2021/06/16 02:11:31;;;;;;;4.05;3.55;;;23.00;99.90;;;;;;5031616;28;20281;-75
2021/06/16 02:14:01;;;;;;;5.68;3.95;;;22.90;99.90;;;;;;5032425;28;20222;-74
2021/06/16 02:16:34;;;;;;;3.75;2.95;;;22.90;99.90;;;;;;5031815;28;20663;-74
2021/06/16 02:19:06;;;;;;;5.32;3.35;;;22.90;99.90;;;;;;5018348;28;20249;-74
2021/06/16 02:21:33;;;;;;;9.30;4.38;;;22.90;99.90;;;;;;5031615;28;20212;-74
2021/06/16 02:24:01;;;;;;;4.47;4.05;;;22.90;99.90;;;;;;5031879;28;20207;-74
2021/06/16 02:26:28;;;;;;;5.55;3.72;;;23.00;99.90;;;;;;5031461;28;20673;-75
2021/06/16 02:28:55;;;;;;;4.25;3.85;;;23.00;99.90;;;;;;5031827;28;20207;-74
2021/06/16 02:31:22;;;;;;;4.47;4.10;;;22.90;99.90;;;;;;5031326;28;20690;-74
2021/06/16 02:33:52;;;;;;;3.70;3.40;;;22.90;99.90;;;;;;5032083;28;20211;-74
2021/06/16 02:36:22;;;;;;;3.65;3.35;;;22.90;99.90;;;;;;5031928;28;20235;-74
2021/06/16 02:38:55;;;;;;;4.32;3.72;;;22.90;99.90;;;;;;5032227;28;20207;-73
2021/06/16 02:41:22;;;;;;;6.88;3.72;;;22.90;99.90;;;;;;5031512;28;20207;-73
2021/06/16 02:43:50;;;;;;;4.55;3.45;;;22.80;99.90;;;;;;5031861;28;20207;-73
2021/06/16 02:46:18;;;;;;;3.30;3.10;;;22.80;99.90;;;;;;5030035;28;20211;-73
2021/06/16 02:48:48;;;;;;;4.28;3.53;;;22.80;99.90;;;;;;5031027;28;20199;-73
2021/06/16 02:51:17;;;;;;;3.97;3.63;;;22.90;99.90;;;;;;5031799;28;20265;-73
2021/06/16 02:53:46;;;;;;;4.88;4.47;;;22.80;99.90;;;;;;5030847;28;20215;-73
2021/06/16 02:56:15;;;;;;;5.60;4.28;;;22.90;99.90;;;;;;5031331;28;20235;-73
2021/06/16 02:58:45;;;;;;;4.38;4.07;;;22.90;99.90;;;;;;5030929;28;20269;-73
2021/06/16 03:01:16;;;;;;;3.75;3.45;;;22.90;99.90;;;;;;5031213;28;20216;-73
2021/06/16 03:03:44;;;;;;;3.97;3.67;;;23.00;99.90;;;;;;5030757;28;20326;-73
2021/06/16 03:06:12;;;;;;;3.97;3.53;;;23.00;99.90;;;;;;5031453;28;20291;-74
2021/06/16 03:08:43;;;;;;;4.25;3.85;;;23.00;99.90;;;;;;5030441;28;20253;-74
2021/06/16 03:11:12;;;;;;;4.55;3.83;;;22.90;99.90;;;;;;5031080;28;20211;-73
2021/06/16 03:13:39;;;;;;;5.10;4.65;;;22.80;99.90;;;;;;5030318;28;20269;-74
2021/06/16 03:16:07;;;;;;;4.35;3.95;;;22.80;99.90;;;;;;5030926;28;20653;-74
2021/06/16 03:18:34;;;;;;;7.78;4.22;;;22.70;99.90;;;;;;5030242;28;20744;-73
2021/06/16 03:21:02;;;;;;;4.25;3.88;;;22.70;99.90;;;;;;5029867;28;20227;-73
2021/06/16 03:23:30;;;;;;;5.35;4.13;;;22.70;99.90;;;;;;5030172;28;20608;-74
2021/06/16 03:25:59;;;;;;;5.20;4.70;;;22.50;99.90;;;;;;5030715;28;20277;-74
2021/06/16 03:28:28;;;;;;;4.15;3.78;;;22.40;99.90;;;;;;5030740;28;20203;-73
2021/06/16 03:30:58;;;;;;;5.18;4.78;;;22.30;99.90;;;;;;5030681;28;20210;-73
2021/06/16 03:33:25;;;;;;;4.00;3.70;;;22.30;99.90;;;;;;5030348;28;20266;-75
2021/06/16 03:35:53;;;;;;;4.45;4.05;;;22.30;99.90;;;;;;5030633;28;20243;-75
2021/06/16 03:38:20;;;;;;;6.25;4.47;;;22.30;99.90;;;;;;5030561;28;20219;-75
2021/06/16 03:40:49;;;;;;;5.13;4.72;;;22.30;99.90;;;;;;5030918;28;20253;-75
2021/06/16 03:43:19;;;;;;;4.82;4.43;;;22.20;99.90;;;;;;5031173;28;20207;-75
2021/06/16 03:45:47;;;;;;;7.53;5.05;;;22.20;99.90;;;;;;5030531;28;20211;-75
2021/06/16 03:48:19;;;;;;;7.47;4.60;;;22.10;99.90;;;;;;5030758;28;20203;-74
2021/06/16 03:50:48;;;;;;;5.22;4.82;;;22.00;99.90;;;;;;5030285;28;20281;-74
2021/06/16 03:53:16;;;;;;;5.30;4.70;;;22.10;99.90;;;;;;5030685;28;20261;-74
2021/06/16 03:55:46;;;;;;;5.20;4.70;;;22.00;99.90;;;;;;5030172;28;20277;-74
2021/06/16 03:58:14;;;;;;;5.28;4.10;;;22.00;99.90;;;;;;5030460;28;20261;-74
2021/06/16 04:00:43;;;;;;;6.63;5.22;;;22.00;99.90;;;;;;5030008;28;20253;-75
2021/06/16 04:03:12;;;;;;;5.63;4.13;;;21.90;99.90;;;;;;5030349;28;20207;-74
2021/06/16 04:05:40;;;;;;;8.52;4.95;;;21.90;99.90;;;;;;5030115;28;20261;-74
2021/06/16 04:08:08;;;;;;;5.10;4.60;;;22.00;99.90;;;;;;5030097;28;20207;-74
2021/06/16 04:10:37;;;;;;;5.78;5.38;;;21.90;99.90;;;;;;5029966;28;20666;-73
2021/06/16 04:13:04;;;;;;;5.55;5.00;;;21.90;99.90;;;;;;5030175;28;20242;-74
2021/06/16 04:15:32;;;;;;;5.22;4.72;;;21.80;99.90;;;;;;5029781;28;20223;-74
2021/06/16 04:18:00;;;;;;;6.13;5.30;;;21.90;99.90;;;;;;5030384;28;20207;-74
2021/06/16 04:20:29;;;;;;;7.78;5.10;;;21.90;99.90;;;;;;5029666;28;20207;-74
2021/06/16 04:22:56;;;;;;;6.30;5.53;;;22.00;99.90;;;;;;5030212;28;20584;-74
2021/06/16 04:25:24;;;;;;;6.45;4.80;;;21.80;99.90;;;;;;5029852;28;20254;-74
2021/06/16 04:27:51;;;;;;;7.82;5.43;;;21.90;99.90;;;;;;5030138;28;20678;-74
2021/06/16 04:30:20;;;;;;;5.75;4.15;;;22.00;99.90;;;;;;5030088;28;20208;-74
2021/06/16 04:32:47;;;;;;;4.60;4.20;;;21.90;99.90;;;;;;5031767;28;20211;-74
2021/06/16 04:35:16;;;;;;;5.30;4.68;;;21.90;99.90;;;;;;5033774;28;20219;-74
2021/06/16 04:37:44;;;;;;;6.07;5.68;;;21.80;99.90;;;;;;5033849;28;20274;-74
2021/06/16 04:40:11;;;;;;;5.50;4.60;;;21.80;99.90;;;;;;5033854;28;20211;-74
2021/06/16 04:42:38;;;;;;;5.72;4.90;;;21.90;99.90;;;;;;5033128;28;20634;-75
2021/06/16 04:45:07;;;;;;;5.07;4.68;;;21.80;99.90;;;;;;5033656;28;20269;-74
2021/06/16 04:47:35;;;;;;;6.50;4.93;;;21.80;99.90;;;;;;5033052;28;20207;-74
2021/06/16 04:50:04;;;;;;;5.00;4.25;;;22.00;99.90;;;;;;5031526;28;20207;-75
2021/06/16 04:52:33;;;;;;;5.35;4.90;;;22.00;99.90;;;;;;5030102;28;20630;-74
2021/06/16 04:55:00;;;;;;;7.50;6.82;;;21.90;99.90;;;;;;5033589;28;20341;-73
2021/06/16 04:57:30;;;;;;;7.20;6.50;;;22.00;99.90;;;;;;5032844;28;20286;-74
2021/06/16 04:59:59;;;;;;;7.63;7.13;;;21.90;99.90;;;;;;5033451;28;20631;-74
2021/06/16 05:02:26;;;;;;;7.43;6.70;;;21.80;99.90;;;;;;5033093;28;20216;-74
2021/06/16 05:04:53;;;;;;;8.23;7.35;;;22.10;99.90;;;;;;5032969;28;20631;-73
2021/06/16 05:07:20;;;;;;;5.85;5.25;;;22.00;99.90;;;;;;5033809;28;20211;-73
2021/06/16 05:09:48;;;;;;;5.68;4.97;;;22.10;99.90;;;;;;5031604;28;20208;-74
2021/06/16 05:12:16;;;;;;;9.80;5.97;;;21.90;99.90;;;;;;5023277;28;20239;-73
2021/06/16 05:14:42;;;;;;;6.55;6.03;;;22.00;99.90;;;;;;5033216;28;20228;-73
2021/06/16 05:17:10;;;;;;;6.45;5.85;;;22.20;99.90;;;;;;5033301;28;20227;-73
2021/06/16 05:19:37;;;;;;;7.20;6.50;;;22.20;99.90;;;;;;5032687;28;20203;-74
2021/06/16 05:22:09;;;;;;;6.28;5.22;;;22.30;99.90;;;;;;5033000;28;20266;-74
2021/06/16 05:24:36;;;;;;;6.75;4.75;;;22.40;99.90;;;;;;5032701;28;20280;-73
2021/06/16 05:27:05;;;;;;;5.22;4.03;;;22.30;99.90;;;;;;5032835;28;20207;-72
2021/06/16 05:29:32;;;;;;;9.73;4.57;;;22.40;99.90;;;;;;5032807;28;20285;-73
2021/06/16 05:31:59;;;;;;;5.20;4.30;;;22.40;99.90;;;;;;5046869;28;20623;-73
2021/06/16 05:34:26;;;;;;;6.60;5.13;;;22.50;99.90;;;;;;5032407;28;20269;-72
2021/06/16 05:36:53;;;;;;;6.10;5.60;;;22.70;99.90;;;;;;5032666;28;20235;-72
2021/06/16 05:39:20;;;;;;;6.82;4.78;;;22.70;99.90;;;;;;5032898;28;20257;-73
2021/06/16 05:41:49;;;;;;;6.38;4.65;;;22.70;99.90;;;;;;5033246;28;20616;-73
2021/06/16 05:44:17;;;;;;;7.75;7.10;;;22.60;99.90;;;;;;5031950;28;20203;-73
2021/06/16 05:46:44;;;;;;;9.32;8.43;;;22.70;99.90;;;;;;5032523;28;20660;-73
2021/06/16 05:49:11;;;;;;;10.05;9.23;;;22.70;99.90;;;;;;5032350;28;20207;-73
2021/06/16 05:51:38;;;;;;;6.95;6.45;;;22.80;99.90;;;;;;5032117;28;20207;-72
2021/06/16 05:54:09;;;;;;;7.50;6.80;;;22.80;99.90;;;;;;5032274;28;20261;-73
2021/06/16 05:56:37;;;;;;;6.13;5.35;;;22.80;99.90;;;;;;5036997;28;20215;-73
2021/06/16 05:59:04;;;;;;;6.80;5.47;;;22.90;99.90;;;;;;5041518;28;20294;-73
2021/06/16 06:01:34;;;;;;;7.43;5.15;;;23.00;99.90;;;;;;5031837;28;20261;-73
2021/06/16 06:04:02;;;;;;;7.40;4.25;;;23.00;99.90;;;;;;5032350;28;20600;-73
2021/06/16 06:06:30;;;;;;;6.63;5.57;;;23.20;99.90;;;;;;5031840;28;20230;-73
2021/06/16 06:08:57;;;;;;;7.85;5.13;;;23.30;99.90;;;;;;5030632;28;20624;-74
2021/06/16 06:11:24;;;;;;;6.15;4.63;;;23.50;99.90;;;;;;5027583;28;20930;-72
2021/06/16 06:13:51;;;;;;;18.23;5.47;;;23.70;99.90;;;;;;5032499;28;20265;-73
2021/06/16 06:16:18;;;;;;;5.93;3.85;;;23.80;99.90;;;;;;5032431;28;20227;-72
2021/06/16 06:18:47;;;;;;;15.23;5.63;;;23.90;99.90;;;;;;5034459;28;20210;-72
2021/06/16 06:21:14;;;;;;;11.38;6.18;;;23.90;99.90;;;;;;5036940;28;20281;-72
2021/06/16 06:23:40;;;;;;;6.88;5.05;;;24.00;99.90;;;;;;5034442;28;20207;-72
2021/06/16 06:26:08;;;;;;;7.20;4.35;;;24.20;99.90;;;;;;5042028;28;20257;-72
2021/06/16 06:28:36;;;;;;;4.75;4.40;;;24.30;99.90;;;;;;5030937;28;20254;-74
2021/06/16 06:31:03;;;;;;;4.82;4.40;;;24.50;99.90;;;;;;5030400;28;20282;-74
2021/06/16 06:33:30;;;;;;;8.23;4.75;;;24.60;99.90;;;;;;5031147;28;20350;-73
2021/06/16 06:35:58;;;;;;;15.20;4.70;;;24.60;99.90;;;;;;5031994;28;20199;-74
2021/06/16 06:38:25;;;;;;;5.90;4.80;;;24.60;99.90;;;;;;5031505;28;20257;-73
2021/06/16 06:40:52;;;;;;;17.02;5.28;;;24.70;99.90;;;;;;5031675;28;20620;-73
2021/06/16 06:43:19;;;;;;;10.32;4.70;;;24.90;99.90;;;;;;5032101;28;20211;-73
2021/06/16 06:45:46;;;;;;;6.22;3.60;;;25.00;99.90;;;;;;5031310;28;20203;-73
2021/06/16 06:48:13;;;;;;;7.20;4.47;;;25.00;99.90;;;;;;5031819;28;20265;-73
2021/06/16 06:50:40;;;;;;;17.38;15.95;;;25.10;99.90;;;;;;5030990;28;20257;-74
2021/06/16 06:53:09;;;;;;;7.57;4.03;;;25.20;99.90;;;;;;5029362;28;20208;-73
2021/06/16 06:55:36;;;;;;;12.43;4.20;;;25.00;99.90;;;;;;5027751;28;20736;-73
2021/06/16 06:58:04;;;;;;;6.85;3.28;;;25.40;99.90;;;;;;5030197;28;20243;-73
2021/06/16 07:00:31;;;;;;;11.75;4.32;;;25.60;99.90;;;;;;5025749;28;20258;-73
2021/06/16 07:02:58;;;;;;;9.48;4.32;;;25.60;99.90;;;;;;5031294;28;20238;-73
2021/06/16 07:05:25;;;;;;;10.23;4.35;;;25.60;99.90;;;;;;5030816;28;20215;-73
2021/06/16 07:07:52;;;;;;;4.88;3.45;;;25.70;99.90;;;;;;5031343;28;20245;-73
2021/06/16 07:10:21;;;;;;;7.60;4.30;;;26.00;99.90;;;;;;5031416;28;20253;-75
2021/06/16 07:12:48;;;;;;;8.60;4.50;;;26.10;99.90;;;;;;5031187;28;20752;-74
2021/06/16 07:15:15;;;;;;;8.77;4.25;;;26.20;99.90;;;;;;5030904;28;20273;-72
2021/06/16 07:17:44;;;;;;;11.15;4.10;;;26.50;99.90;;;;;;5028358;28;20242;-71
2021/06/16 07:20:12;;;;;;;5.85;3.78;;;26.40;99.90;;;;;;5030945;28;20211;-73
2021/06/16 07:22:39;;;;;;;5.35;4.00;;;26.10;99.90;;;;;;5033894;28;20219;-73
2021/06/16 07:25:07;;;;;;;6.22;3.85;;;25.70;99.90;;;;;;5035106;28;20212;-71
2021/06/16 07:27:36;;;;;;;6.00;4.05;;;25.90;99.90;;;;;;5031402;28;20207;-70
2021/06/16 07:30:04;;;;;;;5.45;3.58;;;26.00;99.90;;;;;;5030399;28;20768;-71
2021/06/16 07:32:31;;;;;;;8.48;3.95;;;26.60;99.90;;;;;;5029969;28;20265;-70
2021/06/16 07:34:59;;;;;;;6.10;4.20;;;27.10;99.90;;;;;;5030446;28;20203;-70
2021/06/16 07:37:26;;;;;;;7.72;3.95;;;26.50;99.90;;;;;;5029997;28;20231;-73
2021/06/16 07:39:54;;;;;;;4.60;3.55;;;26.60;99.90;;;;;;5031274;28;20265;-70
2021/06/16 07:42:21;;;;;;;4.57;3.97;;;26.90;99.90;;;;;;5032300;28;20207;-73
2021/06/16 07:44:50;;;;;;;4.45;4.05;;;28.30;99.90;;;;;;5030447;28;20281;-71
2021/06/16 07:47:17;;;;;;;6.03;3.40;;;29.10;99.90;;;;;;5023216;28;20215;-73
2021/06/16 07:49:44;;;;;;;11.73;5.25;;;27.60;99.90;;;;;;5024528;28;20277;-72
2021/06/16 07:52:11;;;;;;;9.52;4.47;;;26.80;99.90;;;;;;5027049;28;20269;-71
2021/06/16 07:54:38;;;;;;;13.68;5.13;;;27.20;99.90;;;;;;5026386;28;20211;-71
2021/06/16 07:57:06;;;;;;;12.13;5.97;;;27.50;99.90;;;;;;5030092;28;20230;-70
2021/06/16 07:59:33;;;;;;;13.85;4.82;;;27.20;99.90;;;;;;5029287;28;20628;-71
2021/06/16 08:02:01;;;;;;;7.10;5.13;;;26.90;99.90;;;;;;5030468;28;20204;-71
2021/06/16 08:04:28;;;;;;;9.27;4.85;;;27.70;99.90;;;;;;5029409;28;20670;-71
2021/06/16 08:06:56;;;;;;;6.60;5.00;;;27.70;99.90;;;;;;5029987;28;20261;-72
2021/06/16 08:09:23;;;;;;;6.65;4.47;;;28.20;99.90;;;;;;5033829;28;20298;-71
2021/06/16 08:11:51;;;;;;;7.97;4.72;;;28.30;99.90;;;;;;5033936;28;20204;-72
2021/06/16 08:14:18;;;;;;;18.33;6.35;;;28.00;99.90;;;;;;5040055;28;20340;-71
2021/06/16 08:16:45;;;;;;;18.70;5.93;;;29.10;99.90;;;;;;5030811;28;20243;-72
2021/06/16 08:19:13;;;;;;;16.55;6.60;;;30.60;99.90;;;;;;5032745;28;20207;-72
2021/06/16 08:21:40;;;;;;;10.57;5.80;;;30.60;99.90;;;;;;5025010;28;20271;-72
2021/06/16 08:24:08;;;;;;;8.45;4.20;;;29.10;99.90;;;;;;5033795;28;20203;-71
2021/06/16 08:26:36;;;;;;;6.72;3.50;;;29.10;99.90;;;;;;5033684;28;20272;-70
2021/06/16 08:29:02;;;;;;;12.73;3.85;;;28.30;99.90;;;;;;5032817;28;20208;-72
2021/06/16 08:31:29;;;;;;;5.78;5.28;;;28.20;99.90;;;;;;5033234;28;20563;-72
2021/06/16 08:33:56;;;;;;;12.73;4.40;;;28.40;99.90;;;;;;5033700;28;20269;-73
2021/06/16 08:36:25;;;;;;;7.75;5.03;;;28.40;99.90;;;;;;5033056;28;20606;-73
2021/06/16 08:38:52;;;;;;;7.63;5.03;;;28.30;99.90;;;;;;5033482;28;21216;-75
2021/06/16 08:41:20;;;;;;;5.95;5.32;;;28.50;99.90;;;;;;5034038;28;20289;-73
2021/06/16 08:43:47;;;;;;;6.82;4.53;;;28.90;99.90;;;;;;5033616;28;20214;-75
2021/06/16 08:46:16;;;;;;;9.95;4.13;;;29.10;99.90;;;;;;5033985;28;20303;-74
2021/06/16 08:48:45;;;;;;;4.60;4.20;;;28.90;99.90;;;;;;5033056;28;20269;-74
2021/06/16 08:51:15;;;;;;;6.32;4.88;;;29.10;99.90;;;;;;5033805;28;20204;-74
2021/06/16 08:53:45;;;;;;;6.32;4.10;;;29.30;99.90;;;;;;5021265;28;20718;-75
2021/06/16 08:56:13;;;;;;;9.85;4.57;;;29.20;99.90;;;;;;5026510;28;20265;-75
2021/06/16 08:58:41;;;;;;;15.23;5.57;;;29.40;99.90;;;;;;5032660;28;20238;-73
2021/06/16 09:01:11;;;;;;;9.02;4.88;;;29.60;99.90;;;;;;5033339;28;20215;-73
2021/06/16 09:03:39;;;;;;;7.05;4.70;;;29.80;99.90;;;;;;5030851;28;20211;-75
2021/06/16 09:06:08;;;;;;;7.30;4.70;;;29.70;99.90;;;;;;5027024;28;20216;-76
2021/06/16 09:08:52;;;;;;;10.65;4.45;;;29.70;99.90;;;;;;5031201;28;20284;-76
2021/06/16 09:11:19;;;;;;;17.38;5.80;;;30.10;99.90;;;;;;5029524;28;20262;-75
2021/06/16 09:13:46;;;;;;;7.97;5.80;;;30.30;99.90;;;;;;5024009;28;20620;-76
2021/06/16 09:16:28;;;;;;;13.48;4.85;;;30.00;99.90;;;;;;5033200;28;20211;-77
2021/06/16 09:18:55;;;;;;;9.70;5.78;;;30.40;99.90;;;;;;5032891;28;20278;-76
2021/06/16 09:21:36;;;;;;;9.15;4.55;;;30.40;99.90;;;;;;5032362;28;20598;-75
2021/06/16 09:24:04;;;;;;;8.13;4.40;;;30.00;99.90;;;;;;5026609;28;20212;-76
2021/06/16 09:26:32;;;;;;;7.43;4.88;;;30.00;99.90;;;;;;5032488;28;20551;-76
2021/06/16 09:29:00;;;;;;;8.95;5.75;;;30.30;99.90;;;;;;5032789;28;20214;-75
2021/06/16 09:31:27;;;;;;;10.25;4.88;;;30.80;99.90;;;;;;5032499;28;20207;-75
2021/06/16 09:33:56;;;;;;;16.13;5.47;;;30.80;99.90;;;;;;5032512;28;20261;-76
2021/06/16 09:36:24;;;;;;;10.00;4.50;;;30.40;99.90;;;;;;5031966;28;20588;-75
2021/06/16 09:38:53;;;;;;;6.70;5.40;;;31.30;99.90;;;;;;5032370;28;20281;-76
2021/06/16 09:41:23;;;;;;;10.80;5.80;;;32.10;99.90;;;;;;5032824;28;20211;-76
2021/06/16 09:43:55;;;;;;;6.45;5.00;;;31.20;99.90;;;;;;5032716;28;20268;-76
2021/06/16 09:46:22;;;;;;;45.60;7.30;;;31.00;99.90;;;;;;5032364;28;20257;-76
2021/06/16 09:48:50;;;;;;;8.98;5.38;;;31.20;99.90;;;;;;5032548;28;20294;-75
2021/06/16 09:51:20;;;;;;;8.25;7.45;;;31.80;99.90;;;;;;5032433;28;20217;-74
2021/06/16 09:53:57;;;;;;;6.03;5.20;;;32.40;99.90;;;;;;5032830;28;20207;-77
2021/06/16 09:56:26;;;;;;;7.43;5.00;;;33.40;99.90;;;;;;5029204;28;20280;-77
2021/06/16 09:58:54;;;;;;;9.13;4.90;;;33.60;99.90;;;;;;5032544;28;20241;-76
2021/06/16 10:01:45;;;;;;;6.63;5.00;;;33.90;99.90;;;;;;5031958;28;20199;-76
2021/06/16 10:04:30;;;;;;;5.60;4.90;;;34.10;99.90;;;;;;5024863;28;20268;-78
2021/06/16 10:07:13;;;;;;;10.93;5.85;;;33.70;99.90;;;;;;5024822;28;20240;-77
2021/06/16 10:09:46;;;;;;;7.72;6.22;;;34.00;99.90;;;;;;5030165;28;20215;-79
2021/06/16 10:12:15;;;;;;;11.65;5.32;;;34.40;99.90;;;;;;5029372;28;20207;-77
2021/06/16 10:14:42;;;;;;;10.45;6.00;;;34.90;99.90;;;;;;5029506;28;20207;-75
2021/06/16 10:17:10;;;;;;;5.60;5.10;;;35.00;99.90;;;;;;5031836;28;20625;-78
2021/06/16 10:19:37;;;;;;;8.68;5.97;;;36.30;99.90;;;;;;5031391;28;20686;-76
2021/06/16 10:22:05;;;;;;;5.47;4.95;;;35.70;99.90;;;;;;5029828;28;20210;-75
2021/06/16 10:24:32;;;;;;;7.40;5.80;;;35.70;99.90;;;;;;5029056;28;20206;-73
2021/06/16 10:27:02;;;;;;;6.32;5.80;;;37.60;99.90;;;;;;5031564;28;20215;-76
2021/06/16 10:29:34;;;;;;;7.57;6.22;;;35.40;99.90;;;;;;5031173;28;20579;-73
2021/06/16 10:32:04;;;;;;;8.10;6.05;;;35.30;99.90;;;;;;5029608;28;20710;-77
2021/06/16 10:34:56;;;;;;;12.15;6.15;;;35.60;99.90;;;;;;5029658;28;20202;-77
2021/06/16 10:37:26;;;;;;;5.70;5.20;;;35.70;99.90;;;;;;5029376;28;20211;-77
2021/06/16 10:40:27;;;;;;;6.53;5.80;;;32.50;99.90;;;;;;5035932;28;20199;-76
2021/06/16 10:43:17;;;;;;;6.63;5.68;;;31.20;99.90;;;;;;5012532;28;20198;-75
2021/06/16 10:46:00;;;;;;;10.00;5.95;;;31.30;99.90;;;;;;5030812;28;20289;-74
2021/06/16 10:48:54;;;;;;;7.32;5.97;;;31.20;99.90;;;;;;5025291;28;20218;-75
2021/06/16 10:51:29;;;;;;;5.78;5.28;;;31.40;99.90;;;;;;5027426;28;20213;-76
2021/06/16 10:54:18;;;;;;;10.50;7.20;;;31.80;99.90;;;;;;5029875;28;20202;-76
2021/06/16 10:56:47;;;;;;;6.28;5.78;;;31.70;99.90;;;;;;5029217;28;20195;-78
2021/06/16 10:59:16;;;;;;;7.00;6.50;;;31.60;99.90;;;;;;5029174;28;20242;-75
2021/06/16 11:01:49;;;;;;;6.22;5.63;;;31.40;99.90;;;;;;5029733;28;20666;-76
2021/06/16 11:04:30;;;;;;;6.28;5.78;;;31.40;99.90;;;;;;5028415;28;20682;-74
2021/06/16 11:06:57;;;;;;;7.47;6.38;;;31.50;99.90;;;;;;5030177;28;20621;-75
2021/06/16 11:09:51;;;;;;;7.63;5.78;;;31.30;99.90;;;;;;5029134;28;20592;-76
2021/06/16 11:12:29;;;;;;;6.80;6.25;;;31.40;99.90;;;;;;5021990;28;20297;-78
2021/06/16 11:14:57;;;;;;;6.18;5.53;;;31.40;99.90;;;;;;5027985;28;20211;-74
2021/06/16 11:17:45;;;;;;;8.63;5.25;;;31.40;99.90;;;;;;5025001;28;20207;-78
2021/06/16 11:20:19;;;;;;;6.57;5.70;;;31.30;99.90;;;;;;5020710;28;20265;-77
2021/06/16 11:22:54;;;;;;;9.93;6.18;;;31.80;99.90;;;;;;5028867;28;20218;-74
2021/06/16 11:25:39;;;;;;;13.02;6.25;;;32.20;99.90;;;;;;5028170;28;20206;-74
2021/06/16 11:28:12;;;;;;;7.97;5.60;;;32.00;99.90;;;;;;5029071;28;20850;-75
2021/06/16 11:30:45;;;;;;;7.97;6.18;;;32.40;99.90;;;;;;5029189;28;20209;-75
2021/06/16 11:33:35;;;;;;;6.18;5.57;;;32.20;99.90;;;;;;5030486;28;20210;-74
2021/06/16 11:36:09;;;;;;;5.53;4.95;;;32.20;99.90;;;;;;5030160;28;20674;-72
2021/06/16 11:38:37;;;;;;;5.72;5.10;;;32.10;99.90;;;;;;5030015;28;20297;-75
2021/06/16 11:41:15;;;;;;;6.60;5.90;;;32.00;99.90;;;;;;5026056;28;20203;-73
2021/06/16 11:43:44;;;;;;;6.40;5.85;;;31.90;99.90;;;;;;5024484;28;20652;-72
2021/06/16 11:46:15;;;;;;;6.60;6.00;;;32.20;99.90;;;;;;5030947;28;20268;-71
2021/06/16 11:48:45;;;;;;;6.60;6.00;;;32.70;99.90;;;;;;5026775;28;20258;-71
2021/06/16 11:51:13;;;;;;;5.07;4.68;;;32.90;99.90;;;;;;5030542;28;20206;-71
2021/06/16 11:53:40;;;;;;;7.13;5.15;;;32.90;99.90;;;;;;5030013;28;20685;-72
2021/06/16 11:56:09;;;;;;;6.25;4.88;;;32.50;99.90;;;;;;5030129;28;20302;-74
2021/06/16 11:58:38;;;;;;;8.13;6.03;;;32.30;99.90;;;;;;5029949;28;20799;-72
2021/06/16 12:01:10;;;;;;;7.57;5.65;;;32.40;99.90;;;;;;5030078;28;20741;-73
2021/06/16 12:03:40;;;;;;;6.63;6.13;;;32.30;99.90;;;;;;5025227;28;20203;-73
2021/06/16 12:06:11;;;;;;;6.88;4.85;;;32.60;99.90;;;;;;5029617;28;20702;-74
2021/06/16 12:08:38;;;;;;;6.38;5.70;;;32.60;99.90;;;;;;5026372;28;20293;-72
2021/06/16 12:11:20;;;;;;;5.93;5.30;;;32.80;99.90;;;;;;5030037;28;20559;-72
2021/06/16 12:14:01;;;;;;;5.70;5.05;;;32.80;99.90;;;;;;5020729;28;20206;-74
2021/06/16 12:16:31;;;;;;;8.85;6.03;;;32.90;99.90;;;;;;5029818;28;20215;-72
2021/06/16 12:19:14;;;;;;;5.68;5.20;;;33.20;99.90;;;;;;5027718;28;20230;-72
2021/06/16 12:21:55;;;;;;;5.80;5.28;;;32.90;99.90;;;;;;5029254;28;20211;-75
2021/06/16 12:24:23;;;;;;;5.75;5.25;;;32.50;99.90;;;;;;5026137;28;20214;-74
2021/06/16 12:27:12;;;;;;;5.78;4.63;;;31.80;99.90;;;;;;5030065;28;20203;-74
2021/06/16 12:29:46;;;;;;;8.23;4.72;;;32.50;99.90;;;;;;5021081;28;20210;-72
2021/06/16 12:32:14;;;;;;;5.65;4.20;;;32.50;99.90;;;;;;5028685;28;20297;-72
2021/06/16 12:34:56;;;;;;;9.65;5.57;;;32.80;99.90;;;;;;5029707;28;20211;-73
2021/06/16 12:37:25;;;;;;;10.05;5.22;;;32.80;99.90;;;;;;5029426;28;20696;-72
2021/06/16 12:39:58;;;;;;;11.32;5.05;;;33.10;99.90;;;;;;5029746;28;20230;-72
2021/06/16 12:42:39;;;;;;;8.95;5.13;;;32.90;99.90;;;;;;5029374;28;20211;-71
2021/06/16 12:45:27;;;;;;;7.35;5.10;;;32.80;99.90;;;;;;5028289;28;20215;-70
2021/06/16 12:47:55;;;;;;;5.25;4.70;;;33.00;99.90;;;;;;5019271;28;20261;-70
2021/06/16 12:50:31;;;;;;;6.10;4.88;;;32.90;99.90;;;;;;5025851;28;20209;-72
2021/06/16 12:53:11;;;;;;;8.50;4.50;;;33.20;99.90;;;;;;5028889;28;20210;-71
2021/06/16 12:55:44;;;;;;;5.97;4.43;;;33.10;99.90;;;;;;5028035;28;20206;-71
2021/06/16 12:58:11;;;;;;;7.45;4.43;;;33.00;99.90;;;;;;5033349;28;20210;-74
2021/06/16 13:00:38;;;;;;;12.60;5.22;;;33.30;99.90;;;;;;5031683;28;20230;-73